KHSP/HSP METAR and TAF weather

Enter ICAO airport designator
Station Type Date Time Source
KHSP METAR 2020/07/06 19:35 UTC NOAA

KHSP 061935Z AUTO 17006KT 10SM VCTS SCT021 SCT032 BKN038 26/20 A3022 RMK AO2 LTG DSNT ALQS T02600197


Station Type Date Time Source
KHSP Decoded METAR 2020/07/06 19:35 UTC NOAA

Hot Springs / Ingalls, VA, United States (KHSP) 37-57N 079-50W
Jul 06, 2020 - 03:35 PM EDT / 2020.07.06 1935 UTC
Wind: from the S (170 degrees) at 7 MPH (6 KT):0
Visibility: 10 mile(s):0
Sky conditions: mostly cloudy
Weather: thunder in the vicinity; Lightning observed
Temperature: 78.8 F (26.0 C)
Dew Point: 67.5 F (19.7 C)
Relative Humidity: 68%
Pressure (altimeter): 30.22 in. Hg (1023 hPa)
ob: KHSP 061935Z AUTO 17006KT 10SM VCTS SCT021 SCT032 BKN038 26/20 A3022 RMK AO2 LTG DSNT ALQS T02600197
cycle: 19

Station Type Date Time Source
KHSP TAF UTC NOAA

Error!

Example: see airport list